Time,TemperatureF,DewpointF,PressureIn,WindDirection,WindDirectionDegrees,WindSpeedMPH,WindSpeedGustMPH,Humidity,HourlyPrecipIn,Conditions,Clouds,dailyrainin,SoftwareType,DateUTC
2013-03-13 00:00:00,22.5,6.2,29.12,SW,223,0.0,0.0,49,0.00,,FEW036,0.00,VWS V14.00,2013-03-13 05:00:00,
2013-03-13 00:05:00,22.6,6.4,29.12,WSW,255,0.0,0.0,49,0.00,,FEW036,0.00,VWS V14.00,2013-03-13 05:05:00,
2013-03-13 00:10:00,22.5,6.2,29.12,SW,227,0.0,0.0,49,0.00,,FEW036,0.00,VWS V14.00,2013-03-13 05:10:00,
2013-03-13 00:15:00,22.5,6.6,29.12,SW,235,0.0,0.0,50,0.00,,FEW036,0.00,VWS V14.00,2013-03-13 05:15:00,
2013-03-13 00:20:00,22.6,5.9,29.12,SW,227,0.0,0.0,48,0.00,,FEW036,0.00,VWS V14.00,2013-03-13 05:20:00,
2013-03-13 00:25:00,23.0,5.3,29.12,WSW,241,0.0,0.0,46,0.00,,FEW036,0.00,VWS V14.00,2013-03-13 05:25:00,
2013-03-13 00:30:00,23.2,5.0,29.12,West,274,0.0,0.0,45,0.00,,FEW036,0.00,VWS V14.00,2013-03-13 05:30:00,
2013-03-13 00:35:00,23.2,5.0,29.12,SW,224,0.0,0.0,45,0.00,,FEW036,0.00,VWS V14.00,2013-03-13 05:35:00,
2013-03-13 00:40:00,22.6,4.5,29.12,WNW,283,0.0,0.0,45,0.00,,FEW036,0.00,VWS V14.00,2013-03-13 05:40:00,
2013-03-13 00:45:00,22.6,5.0,29.12,SSW,207,0.0,0.0,46,0.00,,FEW036,0.00,VWS V14.00,2013-03-13 05:45:00,
2013-03-13 00:50:00,22.5,4.8,29.12,WSW,252,0.0,0.0,46,0.00,,FEW036,0.00,VWS V14.00,2013-03-13 05:50:00,
2013-03-13 00:55:00,22.3,4.7,29.12,SW,235,0.0,0.0,46,0.00,,FEW036,0.00,VWS V14.00,2013-03-13 05:55:00,
2013-03-13 01:00:00,22.1,5.0,29.12,WSW,240,0.0,0.0,47,0.00,,FEW036,0.00,VWS V14.00,2013-03-13 06:00:00,
2013-03-13 01:05:00,22.1,5.0,29.12,SW,234,0.0,0.0,47,0.00,,FEW036,0.00,VWS V14.00,2013-03-13 06:05:00,
2013-03-13 01:10:00,22.1,4.5,29.12,WNW,285,0.0,0.0,46,0.00,,FEW036,0.00,VWS V14.00,2013-03-13 06:10:00,
2013-03-13 01:15:00,21.7,4.2,29.12,South,188,0.0,0.0,46,0.00,,FEW036,0.00,VWS V14.00,2013-03-13 06:15:00,
2013-03-13 01:20:00,21.7,4.2,29.12,SSW,199,0.0,0.0,46,0.00,,FEW036,0.00,VWS V14.00,2013-03-13 06:20:00,
2013-03-13 01:25:00,21.7,4.2,29.12,SW,228,0.0,0.0,46,0.00,,FEW036,0.00,VWS V14.00,2013-03-13 06:25:00,
2013-03-13 01:30:00,21.9,4.3,29.12,SW,231,0.0,0.0,46,0.00,,FEW036,0.00,VWS V14.00,2013-03-13 06:30:00,
2013-03-13 01:35:00,21.2,4.1,29.12,SSE,149,0.0,0.0,47,0.00,,FEW036,0.00,VWS V14.00,2013-03-13 06:35:00,
2013-03-13 01:40:00,21.2,3.7,29.15,SSW,194,0.0,0.0,46,0.00,,FEW036,0.00,VWS V14.00,2013-03-13 06:40:00,
2013-03-13 01:45:00,21.4,3.8,29.15,SW,236,0.0,0.0,46,0.00,,FEW036,0.00,VWS V14.00,2013-03-13 06:45:00,
2013-03-13 01:50:00,21.7,3.7,29.15,WSW,239,0.0,0.0,45,0.00,,FEW036,0.00,VWS V14.00,2013-03-13 06:50:00,
2013-03-13 01:55:00,21.6,4.0,29.15,WSW,246,0.0,0.0,46,0.00,,FEW036,0.00,VWS V14.00,2013-03-13 06:55:00,
2013-03-13 02:00:00,21.6,3.5,29.15,WSW,246,0.0,0.0,45,0.00,,FEW036,0.00,VWS V14.00,2013-03-13 07:00:00,
2013-03-13 02:05:00,21.0,3.5,29.15,West,267,0.0,0.0,46,0.00,,CLR,0.00,VWS V14.00,2013-03-13 07:05:00,
2013-03-13 02:10:00,20.7,3.6,29.15,West,270,0.0,0.0,47,0.00,,CLR,0.00,VWS V14.00,2013-03-13 07:10:00,
2013-03-13 02:15:00,20.8,3.3,29.15,SSW,197,0.0,0.0,46,0.00,,CLR,0.00,VWS V14.00,2013-03-13 07:15:00,
2013-03-13 02:20:00,21.0,4.0,29.15,SW,217,0.0,0.0,47,0.00,,CLR,0.00,VWS V14.00,2013-03-13 07:20:00,
2013-03-13 02:25:00,20.7,3.6,29.15,SSW,209,0.0,0.0,47,0.00,,CLR,0.00,VWS V14.00,2013-03-13 07:25:00,
2013-03-13 02:30:00,20.7,3.6,29.15,SSW,212,0.0,0.0,47,0.00,,CLR,0.00,VWS V14.00,2013-03-13 07:30:00,
2013-03-13 02:35:00,19.9,3.4,29.15,SSW,202,0.0,0.0,48,0.00,,CLR,0.00,VWS V14.00,2013-03-13 07:35:00,
2013-03-13 02:40:00,20.1,4.0,29.15,SSE,162,0.0,0.0,49,0.00,,CLR,0.00,VWS V14.00,2013-03-13 07:40:00,
2013-03-13 02:45:00,20.3,3.8,29.15,SSW,210,0.0,0.0,48,0.00,,CLR,0.00,VWS V14.00,2013-03-13 07:45:00,
2013-03-13 02:50:00,20.3,3.8,29.15,West,259,0.0,0.0,48,0.00,,CLR,0.00,VWS V14.00,2013-03-13 07:50:00,
2013-03-13 02:55:00,20.3,4.2,29.15,South,186,0.0,0.0,49,0.00,,CLR,0.00,VWS V14.00,2013-03-13 07:55:00,
2013-03-13 03:00:00,20.1,3.6,29.15,SSW,210,0.0,0.0,48,0.00,,CLR,0.00,VWS V14.00,2013-03-13 08:00:00,
2013-03-13 03:06:00,20.1,4.0,29.15,SW,216,0.0,0.0,49,0.00,,CLR,0.00,VWS V14.00,2013-03-13 08:06:00,
2013-03-13 03:11:00,19.9,3.4,29.15,South,190,0.0,0.0,48,0.00,,CLR,0.00,VWS V14.00,2013-03-13 08:11:00,
2013-03-13 03:16:00,20.1,4.0,29.15,SW,214,0.0,0.0,49,0.00,,CLR,0.00,VWS V14.00,2013-03-13 08:16:00,
2013-03-13 03:21:00,19.6,3.5,29.15,SSW,206,0.0,0.0,49,0.00,,CLR,0.00,VWS V14.00,2013-03-13 08:21:00,
2013-03-13 03:26:00,19.2,4.5,29.15,SSW,202,0.0,0.0,52,0.00,,CLR,0.00,VWS V14.00,2013-03-13 08:26:00,
2013-03-13 03:31:00,18.5,4.2,29.15,SW,223,0.0,0.0,53,0.00,,CLR,0.00,VWS V14.00,2013-03-13 08:31:00,
2013-03-13 03:36:00,18.7,4.4,29.15,SW,229,0.0,0.0,53,0.00,,CLR,0.00,VWS V14.00,2013-03-13 08:36:00,
2013-03-13 03:41:00,18.5,4.2,29.15,WSW,244,0.0,0.0,53,0.00,,CLR,0.00,VWS V14.00,2013-03-13 08:41:00,
2013-03-13 03:46:00,18.7,4.4,29.15,SSW,205,0.0,0.0,53,0.00,,CLR,0.00,VWS V14.00,2013-03-13 08:46:00,
2013-03-13 03:51:00,18.3,4.1,29.15,WSW,238,0.0,0.0,53,0.00,,CLR,0.00,VWS V14.00,2013-03-13 08:51:00,
2013-03-13 03:56:00,18.7,4.4,29.18,West,268,0.0,0.0,53,0.00,,CLR,0.00,VWS V14.00,2013-03-13 08:56:00,
2013-03-13 04:01:00,18.9,3.7,29.18,SSW,208,0.0,0.0,51,0.00,,CLR,0.00,VWS V14.00,2013-03-13 09:01:00,
2013-03-13 04:06:00,18.5,3.0,29.18,SSW,212,0.0,0.0,50,0.00,,CLR,0.00,VWS V14.00,2013-03-13 09:06:00,
2013-03-13 04:11:00,18.7,3.1,29.18,WSW,254,0.0,0.0,50,0.00,,CLR,0.00,VWS V14.00,2013-03-13 09:11:00,
2013-03-13 04:16:00,18.5,2.5,29.18,SSW,213,0.0,0.0,49,0.00,,CLR,0.00,VWS V14.00,2013-03-13 09:16:00,
2013-03-13 04:22:00,18.5,3.0,29.18,SW,223,0.0,0.0,50,0.00,,CLR,0.00,VWS V14.00,2013-03-13 09:22:00,
2013-03-13 04:27:00,18.9,2.9,29.18,WSW,257,0.0,0.0,49,0.00,,CLR,0.00,VWS V14.00,2013-03-13 09:27:00,
2013-03-13 04:32:00,18.5,2.5,29.18,SW,228,0.0,0.0,49,0.00,,CLR,0.00,VWS V14.00,2013-03-13 09:32:00,
2013-03-13 04:37:00,18.9,3.3,29.18,SW,216,0.0,0.0,50,0.00,,CLR,0.00,VWS V14.00,2013-03-13 09:37:00,
2013-03-13 04:42:00,18.5,2.5,29.18,South,172,0.0,0.0,49,0.00,,CLR,0.00,VWS V14.00,2013-03-13 09:42:00,
2013-03-13 04:47:00,18.5,3.0,29.18,SW,216,0.0,0.0,50,0.00,,CLR,0.00,VWS V14.00,2013-03-13 09:47:00,
2013-03-13 04:52:00,18.1,2.6,29.18,SW,229,0.0,0.0,50,0.00,,CLR,0.00,VWS V14.00,2013-03-13 09:52:00,
2013-03-13 04:57:00,17.4,2.8,29.18,South,185,0.0,0.0,52,0.00,,CLR,0.00,VWS V14.00,2013-03-13 09:57:00,
2013-03-13 05:02:00,17.6,3.8,29.18,SW,231,0.0,0.0,54,0.00,,CLR,0.00,VWS V14.00,2013-03-13 10:02:00,
2013-03-13 05:07:00,17.2,3.5,29.18,SW,227,0.0,0.0,54,0.00,,CLR,0.00,VWS V14.00,2013-03-13 10:07:00,
2013-03-13 05:12:00,17.6,4.2,29.18,WSW,252,0.0,0.0,55,0.00,,CLR,0.00,VWS V14.00,2013-03-13 10:12:00,
2013-03-13 05:17:00,17.2,3.5,29.18,SSW,210,0.0,0.0,54,0.00,,CLR,0.00,VWS V14.00,2013-03-13 10:17:00,
2013-03-13 05:22:00,17.6,3.8,29.18,SSW,194,0.0,0.0,54,0.00,,CLR,0.00,VWS V14.00,2013-03-13 10:22:00,
2013-03-13 05:27:00,17.4,3.6,29.18,SSW,210,0.0,0.0,54,0.00,,CLR,0.00,VWS V14.00,2013-03-13 10:27:00,
2013-03-13 05:32:00,16.9,3.1,29.18,SSW,212,0.0,0.0,54,0.00,,CLR,0.00,VWS V14.00,2013-03-13 10:32:00,
2013-03-13 05:37:00,16.9,3.1,29.18,WSW,257,0.0,0.0,54,0.00,,CLR,0.00,VWS V14.00,2013-03-13 10:37:00,
2013-03-13 05:42:00,17.2,3.5,29.21,WSW,258,0.0,0.0,54,0.00,,CLR,0.00,VWS V14.00,2013-03-13 10:42:00,
2013-03-13 05:47:00,16.9,3.1,29.21,West,259,0.0,0.0,54,0.00,,CLR,0.00,VWS V14.00,2013-03-13 10:47:00,
2013-03-13 05:52:00,16.9,3.1,29.21,SSW,206,0.0,0.0,54,0.00,,CLR,0.00,VWS V14.00,2013-03-13 10:52:00,
2013-03-13 05:57:00,16.9,3.5,29.21,WSW,245,0.0,0.0,55,0.00,,CLR,0.00,VWS V14.00,2013-03-13 10:57:00,
2013-03-13 06:02:00,16.7,3.3,29.21,West,270,0.0,0.0,55,0.00,,CLR,0.00,VWS V14.00,2013-03-13 11:02:00,
2013-03-13 06:07:00,16.7,3.3,29.21,WSW,249,0.0,0.0,55,0.00,,CLR,0.00,VWS V14.00,2013-03-13 11:07:00,
2013-03-13 06:12:00,16.9,3.5,29.21,SW,216,0.0,0.0,55,0.00,,CLR,0.00,VWS V14.00,2013-03-13 11:12:00,
2013-03-13 06:17:00,16.9,3.5,29.21,SSE,159,0.0,0.0,55,0.00,,CLR,0.00,VWS V14.00,2013-03-13 11:17:00,
2013-03-13 06:22:00,16.5,3.2,29.21,SW,220,0.0,0.0,55,0.00,,CLR,0.00,VWS V14.00,2013-03-13 11:22:00,
2013-03-13 06:27:00,16.5,3.2,29.21,SW,228,0.0,0.0,55,0.00,,CLR,0.00,VWS V14.00,2013-03-13 11:27:00,
2013-03-13 06:32:00,16.3,3.0,29.21,SW,232,0.0,0.0,55,0.00,,CLR,0.00,VWS V14.00,2013-03-13 11:32:00,
2013-03-13 06:37:00,16.2,3.2,29.21,SW,223,0.0,0.0,56,0.00,,CLR,0.00,VWS V14.00,2013-03-13 11:37:00,
2013-03-13 06:42:00,16.0,3.1,29.21,SW,223,0.0,0.0,56,0.00,,CLR,0.00,VWS V14.00,2013-03-13 11:42:00,
2013-03-13 06:47:00,15.8,2.9,29.21,SSW,198,0.0,0.0,56,0.00,,CLR,0.00,VWS V14.00,2013-03-13 11:47:00,
2013-03-13 06:52:00,15.4,2.9,29.21,SSE,168,0.0,0.0,57,0.00,,CLR,0.00,VWS V14.00,2013-03-13 11:52:00,
2013-03-13 06:57:00,15.4,2.9,29.21,SW,223,0.0,0.0,57,0.00,,CLR,0.00,VWS V14.00,2013-03-13 11:57:00,
2013-03-13 07:02:00,15.8,3.7,29.21,SW,222,0.0,0.0,58,0.00,,CLR,0.00,VWS V14.00,2013-03-13 12:02:00,
2013-03-13 07:07:00,15.8,3.7,29.21,SW,227,0.0,0.0,58,0.00,,CLR,0.00,VWS V14.00,2013-03-13 12:07:00,
2013-03-13 07:12:00,15.4,2.9,29.21,SW,220,0.0,0.0,57,0.00,,CLR,0.00,VWS V14.00,2013-03-13 12:12:00,
2013-03-13 07:17:00,15.4,3.3,29.21,WNW,292,0.0,0.0,58,0.00,,CLR,0.00,VWS V14.00,2013-03-13 12:17:00,
2013-03-13 07:22:00,15.3,3.2,29.21,WSW,244,0.0,0.0,58,0.00,,CLR,0.00,VWS V14.00,2013-03-13 12:22:00,
2013-03-13 07:27:00,15.1,3.0,29.21,SSW,213,0.0,0.0,58,0.00,,CLR,0.00,VWS V14.00,2013-03-13 12:27:00,
2013-03-13 07:32:00,15.3,3.2,29.21,SW,227,0.0,0.0,58,0.00,,CLR,0.00,VWS V14.00,2013-03-13 12:32:00,
2013-03-13 07:37:00,15.8,3.7,29.21,West,271,0.0,0.0,58,0.00,,CLR,0.00,VWS V14.00,2013-03-13 12:37:00,
2013-03-13 07:42:00,15.6,3.1,29.21,SSW,211,0.0,0.0,57,0.00,,CLR,0.00,VWS V14.00,2013-03-13 12:42:00,
2013-03-13 07:47:00,15.8,3.3,29.21,SW,236,0.0,0.0,57,0.00,,CLR,0.00,VWS V14.00,2013-03-13 12:47:00,
2013-03-13 07:52:00,15.6,2.7,29.21,SW,236,0.0,0.0,56,0.00,,CLR,0.00,VWS V14.00,2013-03-13 12:52:00,
2013-03-13 07:57:00,16.0,2.7,29.23,SSW,208,0.0,0.0,55,0.00,,CLR,0.00,VWS V14.00,2013-03-13 12:57:00,
2013-03-13 08:02:00,16.2,2.5,29.23,SW,229,0.0,0.0,54,0.00,,CLR,0.00,VWS V14.00,2013-03-13 13:02:00,
2013-03-13 08:07:00,16.5,2.8,29.23,WSW,238,0.0,0.0,54,0.00,,CLR,0.00,VWS V14.00,2013-03-13 13:07:00,
2013-03-13 08:12:00,16.7,2.5,29.23,South,188,0.0,0.0,53,0.00,,CLR,0.00,VWS V14.00,2013-03-13 13:12:00,
2013-03-13 08:17:00,17.1,2.1,29.23,SSW,210,0.0,0.0,51,0.00,,CLR,0.00,VWS V14.00,2013-03-13 13:17:00,
2013-03-13 08:22:00,17.6,2.1,29.23,SSW,213,0.0,0.0,50,0.00,,CLR,0.00,VWS V14.00,2013-03-13 13:22:00,
2013-03-13 08:27:00,17.8,1.4,29.23,SW,232,0.0,0.0,48,0.00,,CLR,0.00,VWS V14.00,2013-03-13 13:27:00,
2013-03-13 08:32:00,18.5,1.6,29.23,West,263,0.0,0.0,47,0.00,,CLR,0.00,VWS V14.00,2013-03-13 13:32:00,
2013-03-13 08:37:00,19.4,1.5,29.23,West,274,0.0,0.0,45,0.00,,CLR,0.00,VWS V14.00,2013-03-13 13:37:00,
2013-03-13 08:42:00,19.4,1.1,29.23,WSW,238,0.0,0.0,44,0.00,,CLR,0.00,VWS V14.00,2013-03-13 13:42:00,
2013-03-13 08:47:00,19.6,0.7,29.23,SW,234,0.0,0.0,43,0.00,,CLR,0.00,VWS V14.00,2013-03-13 13:47:00,
2013-03-13 08:52:00,20.5,1.5,29.23,WSW,239,0.0,0.0,43,0.00,,CLR,0.00,VWS V14.00,2013-03-13 13:52:00,
2013-03-13 08:57:00,20.3,0.4,29.23,SW,225,0.0,0.0,41,0.00,,CLR,0.00,VWS V14.00,2013-03-13 13:57:00,
2013-03-13 09:02:00,22.1,2.0,29.23,WSW,245,0.0,0.0,41,0.00,,FEW250,0.00,VWS V14.00,2013-03-13 14:02:00,
2013-03-13 09:07:00,21.0,0.5,29.23,South,173,0.0,0.0,40,0.00,,FEW250,0.00,VWS V14.00,2013-03-13 14:07:00,
2013-03-13 09:12:00,21.9,0.8,29.26,SW,224,0.0,0.0,39,0.00,,FEW250,0.00,VWS V14.00,2013-03-13 14:12:00,
2013-03-13 09:17:00,21.4,0.8,29.26,WSW,250,0.0,0.0,40,0.00,,FEW250,0.00,VWS V14.00,2013-03-13 14:17:00,
2013-03-13 09:22:00,22.1,-0.2,29.26,SW,230,0.0,0.0,37,0.00,,FEW250,0.00,VWS V14.00,2013-03-13 14:22:00,
2013-03-13 09:27:00,22.3,-0.6,29.26,WNW,302,0.0,0.0,36,0.00,,FEW250,0.00,VWS V14.00,2013-03-13 14:27:00,
2013-03-13 09:32:00,22.1,-0.2,29.26,WSW,252,0.0,0.0,37,0.00,,FEW250,0.00,VWS V14.00,2013-03-13 14:32:00,
2013-03-13 09:37:00,21.7,0.1,29.26,South,185,0.0,0.0,38,0.00,,FEW250,0.00,VWS V14.00,2013-03-13 14:37:00,
2013-03-13 09:42:00,21.6,-0.1,29.26,SW,214,0.0,0.0,38,0.00,,FEW250,0.00,VWS V14.00,2013-03-13 14:42:00,
2013-03-13 09:47:00,21.9,0.8,29.26,West,266,0.0,0.0,39,0.00,,FEW250,0.00,VWS V14.00,2013-03-13 14:47:00,
2013-03-13 09:52:00,22.5,0.7,29.26,SSE,158,0.0,0.0,38,0.00,,FEW250,0.00,VWS V14.00,2013-03-13 14:52:00,
2013-03-13 09:57:00,23.0,0.0,29.26,SW,220,0.0,0.0,36,0.00,,FEW250,0.00,VWS V14.00,2013-03-13 14:57:00,
2013-03-13 10:02:00,23.2,0.2,29.26,SSE,163,0.0,0.0,36,0.00,,FEW250,0.00,VWS V14.00,2013-03-13 15:02:00,
2013-03-13 10:07:00,23.5,-0.1,29.26,West,261,0.0,0.0,35,0.00,,FEW250,0.00,VWS V14.00,2013-03-13 15:07:00,
2013-03-13 10:12:00,21.9,-0.9,29.29,WNW,283,0.0,0.0,36,0.00,,FEW250,0.00,VWS V14.00,2013-03-13 15:12:00,
2013-03-13 10:17:00,23.5,0.5,29.29,West,279,0.0,0.0,36,0.00,,FEW250,0.00,VWS V14.00,2013-03-13 15:17:00,
2013-03-13 10:22:00,23.4,0.4,29.29,SSW,210,0.0,0.0,36,0.00,,FEW250,0.00,VWS V14.00,2013-03-13 15:22:00,
2013-03-13 10:27:00,23.7,0.1,29.29,WNW,288,0.0,0.0,35,0.00,,FEW250,0.00,VWS V14.00,2013-03-13 15:27:00,
2013-03-13 10:32:00,24.1,0.4,29.29,SSW,206,0.0,0.0,35,0.00,,FEW250,0.00,VWS V14.00,2013-03-13 15:32:00,
2013-03-13 10:37:00,24.3,0.6,29.29,West,261,0.0,0.0,35,0.00,,FEW250,0.00,VWS V14.00,2013-03-13 15:37:00,
2013-03-13 10:42:00,25.2,1.4,29.29,WSW,256,0.0,0.0,35,0.00,,FEW250,0.00,VWS V14.00,2013-03-13 15:42:00,
2013-03-13 10:47:00,26.4,1.2,29.29,SW,228,0.0,0.0,33,0.00,,FEW250,0.00,VWS V14.00,2013-03-13 15:47:00,
2013-03-13 10:52:00,25.5,0.4,29.29,WNW,303,0.0,0.0,33,0.00,,FEW250,0.00,VWS V14.00,2013-03-13 15:52:00,
2013-03-13 10:57:00,26.2,1.7,29.29,SW,221,0.0,0.0,34,0.00,,FEW250,0.00,VWS V14.00,2013-03-13 15:57:00,
2013-03-13 11:02:00,25.9,0.8,29.29,West,271,0.0,0.0,33,0.00,,FEW250,0.00,VWS V14.00,2013-03-13 16:02:00,
2013-03-13 11:07:00,26.2,1.1,29.29,SW,225,0.0,0.0,33,0.00,,FEW250,0.00,VWS V14.00,2013-03-13 16:07:00,
2013-03-13 11:12:00,26.4,1.2,29.26,SW,221,0.0,0.0,33,0.00,,FEW250,0.00,VWS V14.00,2013-03-13 16:12:00,
2013-03-13 11:17:00,27.0,1.7,29.26,WSW,239,0.0,0.0,33,0.00,,FEW250,0.00,VWS V14.00,2013-03-13 16:17:00,
2013-03-13 11:22:00,28.0,2.0,29.26,WNW,288,0.0,0.0,32,0.00,,FEW250,0.00,VWS V14.00,2013-03-13 16:22:00,
2013-03-13 11:27:00,26.1,0.2,29.29,SSW,213,0.0,0.0,32,0.00,,FEW250,0.00,VWS V14.00,2013-03-13 16:27:00,
2013-03-13 11:32:00,27.3,1.4,29.29,WNW,296,0.0,0.0,32,0.00,,FEW250,0.00,VWS V14.00,2013-03-13 16:32:00,
2013-03-13 11:37:00,27.1,1.2,29.29,SW,223,0.0,0.0,32,0.00,,FEW250,0.00,VWS V14.00,2013-03-13 16:37:00,
2013-03-13 11:42:00,27.9,1.8,29.29,WSW,256,0.0,0.0,32,0.00,,FEW250,0.00,VWS V14.00,2013-03-13 16:42:00,
2013-03-13 11:47:00,28.4,2.3,29.29,West,280,0.0,0.0,32,0.00,,FEW250,0.00,VWS V14.00,2013-03-13 16:47:00,
2013-03-13 11:52:00,29.5,2.6,29.29,SW,224,0.0,0.0,31,0.00,,FEW250,0.00,VWS V14.00,2013-03-13 16:52:00,
2013-03-13 11:57:00,30.9,3.1,29.29,South,183,0.0,0.0,30,0.00,,FEW250,0.00,VWS V14.00,2013-03-13 16:57:00,
2013-03-13 12:02:00,30.0,3.1,29.29,SW,232,0.0,0.0,31,0.00,,FEW250,0.00,VWS V14.00,2013-03-13 17:02:00,
2013-03-13 12:07:00,32.0,4.8,29.29,WNW,288,0.0,0.0,31,0.00,,FEW250,0.00,VWS V14.00,2013-03-13 17:07:00,
2013-03-13 12:12:00,28.4,1.6,29.29,SW,221,0.0,0.0,31,0.00,,FEW250,0.00,VWS V14.00,2013-03-13 17:12:00,
2013-03-13 12:17:00,27.1,1.2,29.29,SSW,196,0.0,0.0,32,0.00,,FEW250,0.00,VWS V14.00,2013-03-13 17:17:00,
2013-03-13 12:22:00,29.3,2.4,29.29,North,357,0.0,0.0,31,0.00,,FEW250,0.00,VWS V14.00,2013-03-13 17:22:00,
2013-03-13 12:27:00,28.6,1.8,29.29,SSW,199,0.0,0.0,31,0.00,,FEW250,0.00,VWS V14.00,2013-03-13 17:27:00,
2013-03-13 12:32:00,27.7,1.7,29.29,WSW,237,0.0,0.0,32,0.00,,FEW250,0.00,VWS V14.00,2013-03-13 17:32:00,
2013-03-13 12:37:00,28.6,1.8,29.29,SSW,210,0.0,0.0,31,0.00,,FEW250,0.00,VWS V14.00,2013-03-13 17:37:00,
2013-03-13 12:42:00,29.3,3.1,29.29,NW,315,0.0,0.0,32,0.00,,FEW250,0.00,VWS V14.00,2013-03-13 17:42:00,
2013-03-13 12:47:00,29.3,2.4,29.29,SW,226,0.0,0.0,31,0.00,,FEW250,0.00,VWS V14.00,2013-03-13 17:47:00,
2013-03-13 12:52:00,28.9,2.1,29.29,SW,224,0.0,0.0,31,0.00,,FEW250,0.00,VWS V14.00,2013-03-13 17:52:00,
2013-03-13 12:57:00,29.1,2.3,29.29,SSE,161,0.0,0.0,31,0.00,,FEW250,0.00,VWS V14.00,2013-03-13 17:57:00,
2013-03-13 13:02:00,29.3,2.4,29.29,WNW,283,0.0,0.0,31,0.00,,FEW250,0.00,VWS V14.00,2013-03-13 18:02:00,
2013-03-13 13:07:00,31.6,4.5,29.29,SW,230,0.0,0.0,31,0.00,,FEW250,0.00,VWS V14.00,2013-03-13 18:07:00,
2013-03-13 13:12:00,31.1,4.0,29.29,SSE,165,0.0,0.0,31,0.00,,FEW250,0.00,VWS V14.00,2013-03-13 18:12:00,
2013-03-13 13:17:00,32.5,4.6,29.29,SSW,211,0.0,0.0,30,0.00,,FEW250,0.00,VWS V14.00,2013-03-13 18:17:00,
2013-03-13 13:22:00,33.8,5.7,29.29,WSW,256,0.0,0.0,30,0.00,,FEW250,0.00,VWS V14.00,2013-03-13 18:22:00,
2013-03-13 13:27:00,36.1,7.0,29.29,West,275,0.0,0.0,29,0.00,,FEW250,0.00,VWS V14.00,2013-03-13 18:27:00,
2013-03-13 13:32:00,39.4,7.4,29.29,SSW,196,0.0,0.0,26,0.00,,FEW250,0.00,VWS V14.00,2013-03-13 18:32:00,
2013-03-13 13:37:00,37.0,3.6,29.29,SW,214,0.0,0.0,24,0.00,,FEW250,0.00,VWS V14.00,2013-03-13 18:37:00,
2013-03-13 13:42:00,34.7,4.2,29.29,SW,226,0.0,0.0,27,0.00,,FEW250,0.00,VWS V14.00,2013-03-13 18:42:00,
2013-03-13 13:48:00,38.5,6.6,29.29,WNW,291,0.0,0.0,26,0.00,,FEW250,0.00,VWS V14.00,2013-03-13 18:48:00,
2013-03-13 13:53:00,37.6,4.1,29.29,SSE,167,0.0,0.0,24,0.00,,FEW250,0.00,VWS V14.00,2013-03-13 18:53:00,
2013-03-13 13:58:00,37.4,3.9,29.29,South,186,2.7,4.0,24,0.00,,FEW250,0.00,VWS V14.00,2013-03-13 18:58:00,
2013-03-13 14:03:00,41.7,6.7,29.29,NNW,345,4.9,4.9,23,0.00,,FEW250,0.00,VWS V14.00,2013-03-13 19:03:00,
2013-03-13 14:08:00,38.1,4.5,29.29,SSW,203,0.0,6.3,24,0.00,,FEW250,0.00,VWS V14.00,2013-03-13 19:08:00,
2013-03-13 14:13:00,42.1,7.0,29.29,South,190,5.4,5.4,23,0.00,,FEW250,0.00,VWS V14.00,2013-03-13 19:13:00,
2013-03-13 14:18:00,41.5,6.5,29.29,SSE,152,4.0,5.4,23,0.00,,FEW250,0.00,VWS V14.00,2013-03-13 19:18:00,
2013-03-13 14:23:00,42.4,7.3,29.29,SSE,147,0.0,5.4,23,0.00,,FEW250,0.00,VWS V14.00,2013-03-13 19:23:00,
2013-03-13 14:28:00,34.3,2.2,29.26,SW,230,5.4,6.3,25,0.00,,FEW250,0.00,VWS V14.00,2013-03-13 19:28:00,
2013-03-13 14:33:00,40.5,5.6,29.26,SSE,160,4.0,4.0,23,0.00,,FEW250,0.00,VWS V14.00,2013-03-13 19:33:00,
2013-03-13 14:38:00,41.4,6.4,29.26,SE,125,5.8,7.6,23,0.00,,FEW250,0.00,VWS V14.00,2013-03-13 19:38:00,
2013-03-13 14:43:00,35.4,0.4,29.26,SSW,209,4.5,7.6,22,0.00,,FEW250,0.00,VWS V14.00,2013-03-13 19:43:00,
2013-03-13 14:48:00,38.1,1.6,29.26,SSW,198,2.2,7.6,21,0.00,,FEW250,0.00,VWS V14.00,2013-03-13 19:48:00,
2013-03-13 14:53:00,38.1,4.5,29.26,SW,221,5.4,5.4,24,0.00,,FEW250,0.00,VWS V14.00,2013-03-13 19:53:00,
2013-03-13 14:58:00,42.4,7.3,29.26,NNW,340,2.7,5.4,23,0.00,,FEW250,0.00,VWS V14.00,2013-03-13 19:58:00,
2013-03-13 15:03:00,37.8,4.2,29.26,SSW,210,6.3,6.3,24,0.00,,FEW250,0.00,VWS V14.00,2013-03-13 20:03:00,
2013-03-13 15:08:00,33.8,1.7,29.26,SW,220,2.7,8.3,25,0.00,,FEW250,0.00,VWS V14.00,2013-03-13 20:08:00,
2013-03-13 15:13:00,34.0,1.9,29.26,SW,219,0.0,6.3,25,0.00,,FEW250,0.00,VWS V14.00,2013-03-13 20:13:00,
2013-03-13 15:18:00,35.1,2.8,29.26,SW,224,3.1,6.3,25,0.00,,FEW250,0.00,VWS V14.00,2013-03-13 20:18:00,
2013-03-13 15:23:00,36.1,2.8,29.26,SE,138,2.2,5.4,24,0.00,,FEW250,0.00,VWS V14.00,2013-03-13 20:23:00,
2013-03-13 15:28:00,36.3,3.0,29.26,SE,135,3.1,7.6,24,0.00,,FEW250,0.00,VWS V14.00,2013-03-13 20:28:00,
2013-03-13 15:33:00,35.8,2.5,29.26,SW,225,0.0,4.9,24,0.00,,FEW250,0.00,VWS V14.00,2013-03-13 20:33:00,
2013-03-13 15:38:00,36.5,3.2,29.26,SW,215,6.3,6.3,24,0.00,,FEW250,0.00,VWS V14.00,2013-03-13 20:38:00,
2013-03-13 15:43:00,35.1,2.8,29.26,SSW,199,2.7,7.2,25,0.00,,FEW250,0.00,VWS V14.00,2013-03-13 20:43:00,
2013-03-13 15:48:00,36.9,3.5,29.26,SE,146,3.6,7.2,24,0.00,,FEW250,0.00,VWS V14.00,2013-03-13 20:48:00,
2013-03-13 15:53:00,37.6,4.1,29.26,SSE,149,2.7,4.9,24,0.00,,FEW250,0.00,VWS V14.00,2013-03-13 20:53:00,
2013-03-13 15:58:00,37.0,3.6,29.26,SSE,162,5.4,6.7,24,0.00,,FEW250,0.00,VWS V14.00,2013-03-13 20:58:00,
2013-03-13 16:03:00,35.8,2.5,29.26,SE,142,2.7,4.9,24,0.00,,FEW250,0.00,VWS V14.00,2013-03-13 21:03:00,
2013-03-13 16:08:00,36.7,3.3,29.26,SSW,200,2.7,6.3,24,0.00,,FEW250,0.00,VWS V14.00,2013-03-13 21:08:00,
2013-03-13 16:13:00,34.5,2.3,29.26,WSW,250,0.0,4.0,25,0.00,,FEW250,0.00,VWS V14.00,2013-03-13 21:13:00,
2013-03-13 16:18:00,34.2,2.0,29.26,SE,124,2.7,5.4,25,0.00,,FEW250,0.00,VWS V14.00,2013-03-13 21:18:00,
2013-03-13 16:23:00,36.7,3.3,29.26,SE,124,3.1,3.6,24,0.00,,FEW250,0.00,VWS V14.00,2013-03-13 21:23:00,
2013-03-13 16:28:00,35.6,2.4,29.23,South,180,3.1,6.3,24,0.00,,FEW250,0.00,VWS V14.00,2013-03-13 21:28:00,
2013-03-13 16:33:00,35.8,2.5,29.23,SSE,160,2.7,7.6,24,0.00,,FEW250,0.00,VWS V14.00,2013-03-13 21:33:00,
2013-03-13 16:38:00,35.4,3.1,29.23,South,183,2.7,7.6,25,0.00,,FEW250,0.00,VWS V14.00,2013-03-13 21:38:00,
2013-03-13 16:43:00,35.1,2.8,29.23,SE,141,3.1,5.8,25,0.00,,FEW250,0.00,VWS V14.00,2013-03-13 21:43:00,
2013-03-13 16:48:00,33.8,1.7,29.23,SE,138,3.1,5.8,25,0.00,,FEW250,0.00,VWS V14.00,2013-03-13 21:48:00,
2013-03-13 16:53:00,33.6,1.6,29.23,SE,124,5.8,7.6,25,0.00,,FEW250,0.00,VWS V14.00,2013-03-13 21:53:00,
2013-03-13 16:58:00,33.8,1.7,29.23,SSE,157,3.6,7.6,25,0.00,,FEW250,0.00,VWS V14.00,2013-03-13 21:58:00,
2013-03-13 17:03:00,33.8,1.7,29.23,SE,142,7.6,7.6,25,0.00,,FEW250,0.00,VWS V14.00,2013-03-13 22:03:00,
2013-03-13 17:08:00,33.4,1.4,29.23,SE,125,4.9,7.6,25,0.00,,FEW250,0.00,VWS V14.00,2013-03-13 22:08:00,
2013-03-13 17:13:00,33.3,1.2,29.23,SE,137,3.1,5.8,25,0.00,,FEW250,0.00,VWS V14.00,2013-03-13 22:13:00,
2013-03-13 17:18:00,33.1,1.1,29.23,South,173,2.7,5.8,25,0.00,,FEW250,0.00,VWS V14.00,2013-03-13 22:18:00,
2013-03-13 17:23:00,34.2,2.0,29.23,SE,127,5.4,5.4,25,0.00,,FEW250,0.00,VWS V14.00,2013-03-13 22:23:00,
2013-03-13 17:28:00,33.8,-1.0,29.23,SE,145,3.6,6.3,22,0.00,,FEW250,0.00,VWS V14.00,2013-03-13 22:28:00,
2013-03-13 17:33:00,32.9,-0.8,29.23,SSE,152,5.8,6.3,23,0.00,,FEW250,0.00,VWS V14.00,2013-03-13 22:33:00,
2013-03-13 17:38:00,33.3,1.2,29.23,SSE,156,2.7,6.3,25,0.00,,FEW250,0.00,VWS V14.00,2013-03-13 22:38:00,
2013-03-13 17:43:00,33.3,1.2,29.23,South,173,0.0,5.4,25,0.00,,FEW250,0.00,VWS V14.00,2013-03-13 22:43:00,
2013-03-13 17:48:00,32.5,0.6,29.23,South,179,3.1,5.4,25,0.00,,FEW250,0.00,VWS V14.00,2013-03-13 22:48:00,
2013-03-13 17:53:00,32.5,0.6,29.23,SE,133,4.9,6.3,25,0.00,,FEW250,0.00,VWS V14.00,2013-03-13 22:53:00,
2013-03-13 17:58:00,32.5,0.6,29.23,SE,143,4.0,6.3,25,0.00,,CLR,0.00,VWS V14.00,2013-03-13 22:58:00,
2013-03-13 18:03:00,32.4,0.5,29.23,SE,142,0.0,0.0,25,0.00,,CLR,0.00,VWS V14.00,2013-03-13 23:03:00,
2013-03-13 18:08:00,31.6,-0.1,29.23,SE,142,0.0,6.3,25,0.00,,CLR,0.00,VWS V14.00,2013-03-13 23:08:00,
2013-03-13 18:13:00,31.6,-0.1,29.23,SW,215,0.0,4.5,25,0.00,,CLR,0.00,VWS V14.00,2013-03-13 23:13:00,
2013-03-13 18:18:00,32.2,2.8,29.23,SW,217,0.0,4.5,28,0.00,,CLR,0.00,VWS V14.00,2013-03-13 23:18:00,
2013-03-13 18:23:00,31.6,2.3,29.23,SW,217,0.0,0.0,28,0.00,,CLR,0.00,VWS V14.00,2013-03-13 23:23:00,
2013-03-13 18:28:00,31.8,2.4,29.21,SW,217,0.0,0.0,28,0.00,,CLR,0.00,VWS V14.00,2013-03-13 23:28:00,
2013-03-13 18:33:00,31.3,2.0,29.21,SW,217,0.0,0.0,28,0.00,,CLR,0.00,VWS V14.00,2013-03-13 23:33:00,
2013-03-13 18:38:00,30.6,1.4,29.21,SW,217,0.0,0.0,28,0.00,,CLR,0.00,VWS V14.00,2013-03-13 23:38:00,
2013-03-13 18:43:00,30.6,1.4,29.21,SW,217,0.0,0.0,28,0.00,,CLR,0.00,VWS V14.00,2013-03-13 23:43:00,
2013-03-13 18:48:00,31.1,1.8,29.21,SW,217,0.0,0.0,28,0.00,,CLR,0.00,VWS V14.00,2013-03-13 23:48:00,
2013-03-13 18:53:00,30.4,2.7,29.21,SW,217,0.0,0.0,30,0.00,,CLR,0.00,VWS V14.00,2013-03-13 23:53:00,
2013-03-13 18:58:00,29.7,2.0,29.21,SW,217,0.0,0.0,30,0.00,,FEW250,0.00,VWS V14.00,2013-03-13 23:58:00,
2013-03-13 19:03:00,29.3,1.7,29.21,SW,216,0.0,0.0,30,0.00,,FEW250,0.00,VWS V14.00,2013-03-14 00:03:00,
2013-03-13 19:08:00,28.6,1.1,29.21,SW,216,0.0,0.0,30,0.00,,FEW250,0.00,VWS V14.00,2013-03-14 00:08:00,
2013-03-13 19:13:00,27.9,1.2,29.21,SW,217,0.0,0.0,31,0.00,,FEW250,0.00,VWS V14.00,2013-03-14 00:13:00,
2013-03-13 19:18:00,27.0,0.4,29.21,SW,216,0.0,0.0,31,0.00,,FEW250,0.00,VWS V14.00,2013-03-14 00:18:00,
2013-03-13 19:23:00,26.4,0.6,29.21,SW,217,0.0,0.0,32,0.00,,FEW250,0.00,VWS V14.00,2013-03-14 00:23:00,
2013-03-13 19:28:00,26.4,1.9,29.21,SW,216,0.0,0.0,34,0.00,,FEW250,0.00,VWS V14.00,2013-03-14 00:28:00,
2013-03-13 19:33:00,26.4,1.9,29.21,SW,217,0.0,0.0,34,0.00,,FEW250,0.00,VWS V14.00,2013-03-14 00:33:00,
2013-03-13 19:38:00,25.9,0.8,29.21,SW,216,0.0,0.0,33,0.00,,FEW250,0.00,VWS V14.00,2013-03-14 00:38:00,
2013-03-13 19:43:00,25.3,0.3,29.21,SW,217,0.0,0.0,33,0.00,,FEW250,0.00,VWS V14.00,2013-03-14 00:43:00,
2013-03-13 19:48:00,25.0,0.6,29.21,SW,217,0.0,0.0,34,0.00,,FEW250,0.00,VWS V14.00,2013-03-14 00:48:00,
2013-03-13 19:53:00,24.6,2.7,29.21,SW,216,0.0,0.0,38,0.00,,FEW250,0.00,VWS V14.00,2013-03-14 00:53:00,
2013-03-13 19:58:00,24.3,1.8,29.21,SW,217,0.0,0.0,37,0.00,,CLR,0.00,VWS V14.00,2013-03-14 00:58:00,
2013-03-13 20:03:00,23.9,1.4,29.21,SW,216,0.0,0.0,37,0.00,,CLR,0.00,VWS V14.00,2013-03-14 01:03:00,
2013-03-13 20:08:00,23.7,2.9,29.21,SW,217,0.0,0.0,40,0.00,,CLR,0.00,VWS V14.00,2013-03-14 01:08:00,
2013-03-13 20:13:00,23.5,3.3,29.21,SW,216,0.0,0.0,41,0.00,,CLR,0.00,VWS V14.00,2013-03-14 01:13:00,
2013-03-13 20:18:00,23.5,2.2,29.21,SW,216,0.0,0.0,39,0.00,,CLR,0.00,VWS V14.00,2013-03-14 01:18:00,
2013-03-13 20:23:00,23.2,3.5,29.21,SW,216,0.0,0.0,42,0.00,,CLR,0.00,VWS V14.00,2013-03-14 01:23:00,
2013-03-13 20:28:00,23.5,3.8,29.21,SW,217,0.0,0.0,42,0.00,,CLR,0.00,VWS V14.00,2013-03-14 01:28:00,
2013-03-13 20:33:00,23.9,4.7,29.21,SW,216,0.0,0.0,43,0.00,,CLR,0.00,VWS V14.00,2013-03-14 01:33:00,
2013-03-13 20:38:00,24.1,5.3,29.21,SW,216,0.0,0.0,44,0.00,,CLR,0.00,VWS V14.00,2013-03-14 01:38:00,
2013-03-13 20:43:00,24.3,5.5,29.21,SW,216,0.0,0.0,44,0.00,,CLR,0.00,VWS V14.00,2013-03-14 01:43:00,
2013-03-13 20:48:00,24.1,5.3,29.21,SW,217,0.0,0.0,44,0.00,,CLR,0.00,VWS V14.00,2013-03-14 01:48:00,
2013-03-13 20:53:00,23.9,5.2,29.21,SW,216,0.0,0.0,44,0.00,,CLR,0.00,VWS V14.00,2013-03-14 01:53:00,
2013-03-13 20:58:00,23.5,4.8,29.21,SW,216,0.0,0.0,44,0.00,,CLR,0.00,VWS V14.00,2013-03-14 01:58:00,
2013-03-13 21:03:00,23.5,5.3,29.21,SW,216,0.0,0.0,45,0.00,,CLR,0.00,VWS V14.00,2013-03-14 02:03:00,
2013-03-13 21:08:00,23.4,4.7,29.21,SW,217,0.0,0.0,44,0.00,,CLR,0.00,VWS V14.00,2013-03-14 02:08:00,
2013-03-13 21:13:00,22.8,5.2,29.21,SW,217,0.0,0.0,46,0.00,,CLR,0.00,VWS V14.00,2013-03-14 02:13:00,
2013-03-13 21:18:00,22.6,5.0,29.21,SW,216,0.0,0.0,46,0.00,,CLR,0.00,VWS V14.00,2013-03-14 02:18:00,
2013-03-13 21:23:00,22.6,5.0,29.21,SW,217,0.0,0.0,46,0.00,,CLR,0.00,VWS V14.00,2013-03-14 02:23:00,
2013-03-13 21:28:00,22.5,4.8,29.21,SW,217,0.0,0.0,46,0.00,,CLR,0.00,VWS V14.00,2013-03-14 02:28:00,
2013-03-13 21:33:00,22.5,5.3,29.21,SW,217,0.0,0.0,47,0.00,,CLR,0.00,VWS V14.00,2013-03-14 02:33:00,
2013-03-13 21:38:00,22.8,6.1,29.21,SW,216,0.0,0.0,48,0.00,,CLR,0.00,VWS V14.00,2013-03-14 02:38:00,
2013-03-13 21:43:00,23.2,6.4,29.18,SW,216,0.0,0.0,48,0.00,,CLR,0.00,VWS V14.00,2013-03-14 02:43:00,
2013-03-13 21:48:00,23.5,7.2,29.18,SW,216,0.0,0.0,49,0.00,,CLR,0.00,VWS V14.00,2013-03-14 02:48:00,
2013-03-13 21:53:00,23.5,6.8,29.18,SW,216,0.0,0.0,48,0.00,,CLR,0.00,VWS V14.00,2013-03-14 02:53:00,
2013-03-13 21:58:00,24.1,7.7,29.18,SW,217,0.0,0.0,49,0.00,,SCT250,0.00,VWS V14.00,2013-03-14 02:58:00,
2013-03-13 22:03:00,24.4,7.6,29.18,SW,217,0.0,0.0,48,0.00,,SCT250,0.00,VWS V14.00,2013-03-14 03:03:00,
2013-03-13 22:08:00,24.4,7.1,29.18,SW,216,0.0,0.0,47,0.00,,SCT250,0.00,VWS V14.00,2013-03-14 03:08:00,
2013-03-13 22:13:00,24.8,7.4,29.18,SW,217,0.0,0.0,47,0.00,,SCT250,0.00,VWS V14.00,2013-03-14 03:13:00,
2013-03-13 22:18:00,25.0,7.1,29.18,SW,217,0.0,0.0,46,0.00,,SCT250,0.00,VWS V14.00,2013-03-14 03:18:00,
2013-03-13 22:23:00,25.3,7.0,29.18,SW,217,0.0,0.0,45,0.00,,SCT250,0.00,VWS V14.00,2013-03-14 03:23:00,
2013-03-13 22:28:00,25.3,7.0,29.18,SW,216,0.0,0.0,45,0.00,,SCT250,0.00,VWS V14.00,2013-03-14 03:28:00,
2013-03-13 22:33:00,25.3,7.0,29.18,SW,217,0.0,0.0,45,0.00,,SCT250,0.00,VWS V14.00,2013-03-14 03:33:00,
2013-03-13 22:38:00,25.3,7.0,29.18,SW,217,0.0,0.0,45,0.00,,SCT250,0.00,VWS V14.00,2013-03-14 03:38:00,
2013-03-13 22:43:00,25.3,7.0,29.18,SW,217,0.0,0.0,45,0.00,,SCT250,0.00,VWS V14.00,2013-03-14 03:43:00,
2013-03-13 22:48:00,25.3,7.0,29.18,SW,217,0.0,0.0,45,0.00,,SCT250,0.00,VWS V14.00,2013-03-14 03:48:00,
2013-03-13 22:53:00,25.3,6.5,29.18,SW,217,0.0,0.0,44,0.00,,SCT250,0.00,VWS V14.00,2013-03-14 03:53:00,
2013-03-13 22:58:00,25.5,6.7,29.18,SW,217,0.0,0.0,44,0.00,,BKN200,0.00,VWS V14.00,2013-03-14 03:58:00,
2013-03-13 23:00:00,25.7,6.8,29.18,SW,216,0.0,0.0,44,0.00,,BKN200,0.00,VWS V14.00,2013-03-14 04:00:00,
2013-03-13 23:05:00,25.5,6.2,29.18,SW,216,0.0,0.0,43,0.00,,BKN200,0.00,VWS V14.00,2013-03-14 04:05:00,
2013-03-13 23:10:00,25.3,5.5,29.18,SW,216,0.0,0.0,42,0.00,,BKN200,0.00,VWS V14.00,2013-03-14 04:10:00,
2013-03-13 23:15:00,25.2,5.3,29.18,East,90,0.0,3.6,42,0.00,,BKN200,0.00,VWS V14.00,2013-03-14 04:15:00,
2013-03-13 23:20:00,24.6,4.8,29.18,East,90,0.0,3.6,42,0.00,,BKN200,0.00,VWS V14.00,2013-03-14 04:20:00,
2013-03-13 23:25:00,24.8,5.0,29.18,East,83,0.0,3.1,42,0.00,,BKN200,0.00,VWS V14.00,2013-03-14 04:25:00,
2013-03-13 23:30:00,25.3,4.9,29.18,ENE,68,3.1,4.0,41,0.00,,BKN200,0.00,VWS V14.00,2013-03-14 04:30:00,
2013-03-13 23:35:00,25.3,4.9,29.18,ENE,68,0.0,3.1,41,0.00,,BKN200,0.00,VWS V14.00,2013-03-14 04:35:00,
2013-03-13 23:40:00,25.3,4.9,29.18,ENE,68,0.0,3.1,41,0.00,,BKN200,0.00,VWS V14.00,2013-03-14 04:40:00,
2013-03-13 23:45:00,24.8,5.0,29.18,ENE,68,0.0,0.0,42,0.00,,BKN200,0.00,VWS V14.00,2013-03-14 04:45:00,
2013-03-13 23:50:00,24.6,4.8,29.18,ENE,68,0.0,0.0,42,0.00,,BKN200,0.00,VWS V14.00,2013-03-14 04:50:00,
2013-03-13 23:55:00,24.3,4.5,29.18,ENE,68,0.0,0.0,42,0.00,,BKN200,0.00,VWS V14.00,2013-03-14 04:55:00,